トビリシ の空港の天気 - METARとTAF

トビリシ国際空港 ( UGTB / TBS ) - ジョージア トビリシ
飛行場実況気象(Metar)
観測時間01/19 15:00 GET (01/19 11:00 UTC)
風向・風速西 4m/s
視程10km以上
天気現象
なし
気温7℃
湿度34%
気圧1020hPa
METARUGTB 191100Z 27007KT 240V310 CAVOK 07/M08 Q1020 NOSIG
過去の天気等 Google飛行場航空写真 Wunderground天気予報

過去48時間のMETAR

飛行場予報(TAF)
発表時間: 1/19 09:00 GET (1/19 05:00 UTC)
予報対象時間: 19日10時 GET ~ 20日10時 GET
風向・風速北西 6m/s
視程10km以上
なし
19日14時 GET ~ 19日21時 GET に一時的に
風向・風速不定 1m/s
TAF UGTB 190500Z 1906/2006 32012KT CAVOK TX10/1912Z TNM02/2002Z
TEMPO 1910/1917 VRB02KT